Time;durP1;ratioP1;P1;durP2;ratioP2;P2;SDS_P1;SDS_P2;PMS_P1;PMS_P2;Temp;Humidity;BMP_temperature;BMP_pressure;BME280_temperature;BME280_humidity;BME280_pressure;Samples;Min_cycle;Max_cycle;Signal;HPM_P1;HPM_P2
2023/05/23 00:00:57;;;;;;;30.45;17.17;;;13.80;99.90;;;;;;5029597;28;20063;-77
2023/05/23 00:03:24;;;;;;;27.65;16.65;;;13.80;99.90;;;;;;5030518;28;20077;-78
2023/05/23 00:05:50;;;;;;;24.63;14.43;;;13.70;99.90;;;;;;5030637;28;20049;-78
2023/05/23 00:08:16;;;;;;;30.15;15.63;;;13.70;99.90;;;;;;5029386;28;20404;-78
2023/05/23 00:10:42;;;;;;;27.25;17.00;;;13.70;99.90;;;;;;5029049;28;20127;-80
2023/05/23 00:13:08;;;;;;;29.60;18.20;;;13.80;99.90;;;;;;5029245;28;20037;-80
2023/05/23 00:15:36;;;;;;;28.60;16.42;;;13.70;99.90;;;;;;5018366;28;20048;-80
2023/05/23 00:18:02;;;;;;;32.08;16.63;;;13.70;99.90;;;;;;5026729;28;20042;-78
2023/05/23 00:20:29;;;;;;;25.98;15.00;;;13.70;99.90;;;;;;5020145;28;20034;-79
2023/05/23 00:22:57;;;;;;;26.23;14.82;;;13.80;99.90;;;;;;5033270;28;20033;-77
2023/05/23 00:25:23;;;;;;;26.13;15.30;;;13.70;99.90;;;;;;5030026;28;20033;-79
2023/05/23 00:27:49;;;;;;;28.45;15.20;;;13.70;99.90;;;;;;5029058;28;20045;-78
2023/05/23 00:30:15;;;;;;;22.67;14.38;;;13.70;99.90;;;;;;5016486;28;20045;-79
2023/05/23 00:32:40;;;;;;;21.33;13.55;;;13.70;99.90;;;;;;5004566;28;20103;-78
2023/05/23 00:35:06;;;;;;;24.00;14.80;;;13.70;99.90;;;;;;5020403;28;20053;-78
2023/05/23 00:37:33;;;;;;;21.58;14.75;;;13.70;99.90;;;;;;5032117;28;20446;-78
2023/05/23 00:39:58;;;;;;;22.67;13.48;;;13.70;99.90;;;;;;5033975;28;20083;-78
2023/05/23 00:42:24;;;;;;;24.10;15.88;;;13.70;99.90;;;;;;5033519;28;20168;-78
2023/05/23 00:44:50;;;;;;;24.00;15.38;;;13.60;99.90;;;;;;5026204;28;20580;-78
2023/05/23 00:47:16;;;;;;;22.92;15.52;;;13.60;99.90;;;;;;5024822;28;20045;-78
2023/05/23 00:49:42;;;;;;;23.50;14.82;;;13.60;99.90;;;;;;5023470;28;20038;-78
2023/05/23 00:52:08;;;;;;;24.20;14.57;;;13.60;99.90;;;;;;5027215;28;20037;-79
2023/05/23 00:54:34;;;;;;;26.63;14.23;;;13.60;99.90;;;;;;5025716;28;20108;-78
2023/05/23 00:57:00;;;;;;;23.88;13.85;;;13.60;99.90;;;;;;5032046;28;20188;-79
2023/05/23 00:59:26;;;;;;;21.30;13.35;;;13.60;99.90;;;;;;5032535;28;20121;-81
2023/05/23 01:01:54;;;;;;;20.20;12.00;;;13.50;99.90;;;;;;5029770;28;20069;-78
2023/05/23 01:04:20;;;;;;;22.83;11.57;;;13.50;99.90;;;;;;5028669;28;20033;-77
2023/05/23 01:06:47;;;;;;;18.67;10.50;;;13.50;99.90;;;;;;5006556;28;20049;-78
2023/05/23 01:09:15;;;;;;;19.20;10.45;;;13.50;99.90;;;;;;5021490;28;20129;-77
2023/05/23 01:11:54;;;;;;;20.92;10.80;;;13.40;99.90;;;;;;5024028;28;20064;-78
2023/05/23 01:14:28;;;;;;;13.63;9.52;;;13.50;99.90;;;;;;5026568;28;20386;-78
2023/05/23 01:17:09;;;;;;;18.60;9.07;;;13.50;99.90;;;;;;5032812;28;20526;-78
2023/05/23 01:19:35;;;;;;;12.85;8.13;;;13.50;99.90;;;;;;5018118;28;20037;-78
2023/05/23 01:22:10;;;;;;;15.63;9.00;;;13.50;99.90;;;;;;5034504;28;20413;-78
2023/05/23 01:24:57;;;;;;;15.43;8.63;;;13.50;99.90;;;;;;5033833;28;20048;-78
2023/05/23 01:27:49;;;;;;;19.73;9.52;;;13.40;99.90;;;;;;5033908;28;20041;-79
2023/05/23 01:30:18;;;;;;;20.58;10.27;;;13.30;99.90;;;;;;5034341;28;20046;-78
2023/05/23 01:32:46;;;;;;;17.15;9.60;;;13.20;99.90;;;;;;5033670;28;20539;-79
2023/05/23 01:35:14;;;;;;;23.27;10.32;;;13.10;99.90;;;;;;5033936;28;20048;-78
2023/05/23 01:37:40;;;;;;;21.27;9.80;;;13.00;99.90;;;;;;5033599;28;20037;-77
2023/05/23 01:40:06;;;;;;;22.50;10.85;;;13.00;99.90;;;;;;5033598;28;20044;-77
2023/05/23 01:42:32;;;;;;;27.40;11.65;;;12.90;99.90;;;;;;5033951;28;20029;-77
2023/05/23 01:44:58;;;;;;;20.50;10.82;;;12.80;99.90;;;;;;5033667;28;20132;-77
2023/05/23 01:47:24;;;;;;;28.45;12.10;;;12.80;99.90;;;;;;5031722;28;20042;-79
2023/05/23 01:49:51;;;;;;;25.30;11.75;;;12.70;99.90;;;;;;5026376;28;20116;-77
2023/05/23 01:52:17;;;;;;;26.90;12.20;;;12.70;99.90;;;;;;5030892;28;20038;-77
2023/05/23 01:54:43;;;;;;;27.48;12.45;;;12.70;99.90;;;;;;5030533;28;20045;-80
2023/05/23 01:57:10;;;;;;;31.42;12.38;;;12.60;99.90;;;;;;5031502;28;20112;-77
2023/05/23 01:59:37;;;;;;;25.27;11.05;;;12.60;99.90;;;;;;5029131;28;20037;-78
2023/05/23 02:02:03;;;;;;;29.23;11.40;;;12.60;99.90;;;;;;5025231;28;20156;-78
2023/05/23 02:04:29;;;;;;;28.77;12.70;;;12.60;99.90;;;;;;5027370;28;20120;-80
2023/05/23 02:06:54;;;;;;;31.58;11.48;;;12.60;99.90;;;;;;5032321;28;20037;-78
2023/05/23 02:09:20;;;;;;;27.40;11.38;;;12.60;99.90;;;;;;5030743;28;20038;-78
2023/05/23 02:11:45;;;;;;;24.88;10.73;;;12.60;99.90;;;;;;5026498;28;20539;-77
2023/05/23 02:14:11;;;;;;;25.00;10.85;;;12.50;99.90;;;;;;5024106;28;20034;-78
2023/05/23 02:16:37;;;;;;;28.30;10.05;;;12.50;99.90;;;;;;5026994;28;20116;-77
2023/05/23 02:19:03;;;;;;;27.92;9.90;;;12.50;99.90;;;;;;5029256;28;20041;-77
2023/05/23 02:21:28;;;;;;;21.08;9.98;;;12.50;99.90;;;;;;5025884;28;20489;-78
2023/05/23 02:23:54;;;;;;;32.10;9.98;;;12.50;99.90;;;;;;5024438;28;20033;-78
2023/05/23 02:26:20;;;;;;;23.10;9.68;;;12.40;99.90;;;;;;5023093;28;20116;-77
2023/05/23 02:28:45;;;;;;;23.40;9.25;;;12.40;99.90;;;;;;5027530;28;20404;-79
2023/05/23 02:31:11;;;;;;;21.73;8.95;;;12.40;99.90;;;;;;5021360;28;20117;-79
2023/05/23 02:33:36;;;;;;;26.40;9.50;;;12.30;99.90;;;;;;5023774;28;20029;-79
2023/05/23 02:36:02;;;;;;;20.05;8.40;;;12.20;99.90;;;;;;5024681;28;20046;-78
2023/05/23 02:38:29;;;;;;;19.35;8.63;;;12.30;99.90;;;;;;5028641;28;20520;-79
2023/05/23 02:40:56;;;;;;;27.15;8.88;;;12.20;99.90;;;;;;5028471;28;20042;-78
2023/05/23 02:43:22;;;;;;;23.63;7.85;;;12.30;99.90;;;;;;5027892;28;20095;-78
2023/05/23 02:45:48;;;;;;;28.40;8.73;;;12.20;99.90;;;;;;5032227;28;20505;-79
2023/05/23 02:48:13;;;;;;;20.15;8.35;;;12.10;99.90;;;;;;5022224;28;20055;-77
2023/05/23 02:50:39;;;;;;;20.58;7.55;;;12.20;99.90;;;;;;5026437;28;20079;-77
2023/05/23 02:53:04;;;;;;;23.02;8.45;;;12.20;99.90;;;;;;5025483;28;20042;-77
2023/05/23 02:55:30;;;;;;;22.35;7.78;;;12.20;99.90;;;;;;5030162;28;20044;-78
2023/05/23 02:57:57;;;;;;;18.83;7.35;;;12.20;99.90;;;;;;5024569;28;20037;-79
2023/05/23 03:00:23;;;;;;;23.42;8.38;;;12.20;99.90;;;;;;5027984;28;20064;-78
2023/05/23 03:02:49;;;;;;;23.02;7.68;;;12.20;99.90;;;;;;5030388;28;20041;-77
2023/05/23 03:05:14;;;;;;;25.52;8.48;;;12.20;99.90;;;;;;5019527;28;20115;-79
2023/05/23 03:07:40;;;;;;;19.77;7.93;;;12.20;99.90;;;;;;5031598;28;20105;-78
2023/05/23 03:10:06;;;;;;;20.48;8.57;;;12.20;99.90;;;;;;5031104;28;20083;-77
2023/05/23 03:12:32;;;;;;;23.65;8.20;;;12.20;99.90;;;;;;5028222;28;20084;-78
2023/05/23 03:14:57;;;;;;;27.90;9.35;;;12.20;99.90;;;;;;5024784;28;20506;-78
2023/05/23 03:17:24;;;;;;;29.52;8.48;;;12.20;99.90;;;;;;5024003;28;20029;-78
2023/05/23 03:19:50;;;;;;;24.98;9.10;;;12.20;99.90;;;;;;5024522;28;20076;-76
2023/05/23 03:22:16;;;;;;;24.48;8.65;;;12.20;99.90;;;;;;5030270;28;20061;-77
2023/05/23 03:24:41;;;;;;;24.63;7.88;;;12.20;99.90;;;;;;5029767;28;20469;-79
2023/05/23 03:27:08;;;;;;;19.23;7.25;;;12.10;99.90;;;;;;5023000;28;20045;-77
2023/05/23 03:29:33;;;;;;;22.40;7.38;;;12.10;99.90;;;;;;5024896;28;20067;-78
2023/05/23 03:31:59;;;;;;;21.38;7.32;;;12.10;99.90;;;;;;5019404;28;20037;-80
2023/05/23 03:34:25;;;;;;;19.38;7.53;;;12.10;99.90;;;;;;5022252;28;20044;-79
2023/05/23 03:36:52;;;;;;;21.52;7.45;;;12.10;99.90;;;;;;5025497;28;20139;-78
2023/05/23 03:39:17;;;;;;;23.52;7.85;;;12.10;99.90;;;;;;5028610;28;20040;-78
2023/05/23 03:41:43;;;;;;;17.52;6.90;;;12.10;99.90;;;;;;5027385;28;20038;-80
2023/05/23 03:44:08;;;;;;;20.73;6.82;;;12.10;99.90;;;;;;5021281;28;20038;-79
2023/05/23 03:46:34;;;;;;;19.48;7.03;;;12.10;99.90;;;;;;5006269;28;20052;-81
2023/05/23 03:49:00;;;;;;;18.00;5.97;;;12.00;99.90;;;;;;5010027;28;20511;-80
2023/05/23 03:51:26;;;;;;;19.75;6.43;;;12.10;99.90;;;;;;5025046;28;20103;-78
2023/05/23 03:53:52;;;;;;;16.60;6.00;;;12.00;99.90;;;;;;5025598;28;20041;-79
2023/05/23 03:56:18;;;;;;;12.07;5.57;;;12.00;99.90;;;;;;5026925;28;20034;-79
2023/05/23 03:58:43;;;;;;;21.48;6.78;;;12.00;99.90;;;;;;5029889;28;20505;-79
2023/05/23 04:01:09;;;;;;;20.60;6.43;;;12.00;99.90;;;;;;5021451;28;20042;-78
2023/05/23 04:03:34;;;;;;;17.10;6.28;;;11.90;99.90;;;;;;5029903;28;20025;-80
2023/05/23 04:06:00;;;;;;;18.80;5.85;;;12.00;99.90;;;;;;5029093;28;20675;-79
2023/05/23 04:08:28;;;;;;;17.90;5.63;;;12.00;99.90;;;;;;5012105;28;20046;-79
2023/05/23 04:10:53;;;;;;;18.33;6.03;;;11.90;99.90;;;;;;5027625;28;20044;-78
2023/05/23 04:13:19;;;;;;;12.93;5.65;;;11.90;99.90;;;;;;5025524;28;20049;-78
2023/05/23 04:15:46;;;;;;;13.88;5.68;;;12.00;99.90;;;;;;5027308;28;20046;-78
2023/05/23 04:18:13;;;;;;;17.80;6.47;;;12.00;99.90;;;;;;5028014;28;20631;-78
2023/05/23 04:20:40;;;;;;;15.85;6.30;;;12.00;99.90;;;;;;5026649;28;20501;-79
2023/05/23 04:23:05;;;;;;;20.98;6.38;;;11.90;99.90;;;;;;5009941;28;20041;-78
2023/05/23 04:25:31;;;;;;;16.77;6.30;;;11.90;99.90;;;;;;5022959;28;20044;-78
2023/05/23 04:27:56;;;;;;;13.95;5.28;;;11.90;99.90;;;;;;5027244;28;20053;-78
2023/05/23 04:30:22;;;;;;;10.45;4.20;;;11.90;99.90;;;;;;5027784;28;20057;-77
2023/05/23 04:32:48;;;;;;;15.90;5.00;;;11.90;99.90;;;;;;5023413;28;20045;-78
2023/05/23 04:35:13;;;;;;;14.95;5.10;;;11.90;99.90;;;;;;5017007;28;20042;-80
2023/05/23 04:37:39;;;;;;;15.57;5.03;;;11.90;99.90;;;;;;5021010;28;20033;-78
2023/05/23 04:40:06;;;;;;;12.60;4.88;;;11.80;99.90;;;;;;5022664;28;20440;-78
2023/05/23 04:42:32;;;;;;;14.25;4.75;;;11.80;99.90;;;;;;5031077;28;20567;-77
2023/05/23 04:44:58;;;;;;;18.35;4.72;;;11.80;99.90;;;;;;5031233;28;20041;-78
2023/05/23 04:47:27;;;;;;;18.02;5.93;;;11.70;99.90;;;;;;5031313;28;20543;-77
2023/05/23 04:49:54;;;;;;;17.70;5.85;;;11.70;99.90;;;;;;5030502;28;20085;-78
2023/05/23 04:52:20;;;;;;;20.00;7.05;;;11.70;99.90;;;;;;5031020;28;20084;-82
2023/05/23 04:54:47;;;;;;;17.42;7.60;;;11.70;99.90;;;;;;5030947;28;20084;-78
2023/05/23 04:57:13;;;;;;;23.92;8.70;;;11.70;99.90;;;;;;5031257;28;20050;-77
2023/05/23 04:59:38;;;;;;;21.40;8.82;;;11.60;99.90;;;;;;5031358;28;20034;-78
2023/05/23 05:02:05;;;;;;;22.80;8.20;;;11.60;99.90;;;;;;5030686;28;20117;-79
2023/05/23 05:04:30;;;;;;;26.90;9.02;;;11.50;99.90;;;;;;5031050;28;20125;-80
2023/05/23 05:06:56;;;;;;;21.80;8.18;;;11.50;99.90;;;;;;5031945;28;20093;-79
2023/05/23 05:09:22;;;;;;;18.92;8.15;;;11.50;99.90;;;;;;5034710;28;20088;-78
2023/05/23 05:11:48;;;;;;;17.77;7.75;;;11.40;99.90;;;;;;5035718;28;20045;-77
2023/05/23 05:14:13;;;;;;;19.00;8.43;;;11.40;99.90;;;;;;5034433;28;20054;-79
2023/05/23 05:16:39;;;;;;;18.08;7.25;;;11.40;99.90;;;;;;5034481;28;20095;-79
2023/05/23 05:19:05;;;;;;;19.02;7.65;;;11.30;99.90;;;;;;5035251;28;20993;-80
2023/05/23 05:21:30;;;;;;;18.65;8.35;;;11.30;99.90;;;;;;5034409;28;20116;-79
2023/05/23 05:23:56;;;;;;;17.60;7.65;;;11.30;99.90;;;;;;5034867;28;20120;-79
2023/05/23 05:26:22;;;;;;;23.40;6.97;;;11.20;99.90;;;;;;5016529;28;20061;-78
2023/05/23 05:28:48;;;;;;;22.40;7.28;;;11.20;99.90;;;;;;5034039;28;20038;-79
2023/05/23 05:31:14;;;;;;;17.08;6.93;;;11.20;99.90;;;;;;5034092;28;20033;-79
2023/05/23 05:33:40;;;;;;;19.63;6.70;;;11.30;99.90;;;;;;5034179;28;20037;-78
2023/05/23 05:36:06;;;;;;;23.77;7.20;;;11.30;99.90;;;;;;5034171;28;20523;-77
2023/05/23 05:38:31;;;;;;;16.17;6.53;;;11.30;99.90;;;;;;5034456;28;20069;-78
2023/05/23 05:40:57;;;;;;;16.30;6.32;;;11.20;99.90;;;;;;5033010;28;20037;-79
2023/05/23 05:43:23;;;;;;;20.05;6.05;;;11.20;99.90;;;;;;5032071;28;20046;-78
2023/05/23 05:45:48;;;;;;;16.38;5.80;;;11.20;99.90;;;;;;5032309;28;20041;-80
2023/05/23 05:48:14;;;;;;;18.70;6.63;;;11.30;99.90;;;;;;5032867;28;20045;-81
2023/05/23 05:50:40;;;;;;;13.95;6.07;;;11.20;99.90;;;;;;5032182;28;20041;-81
2023/05/23 05:53:07;;;;;;;20.85;5.63;;;11.20;99.90;;;;;;5016642;28;20042;-80
2023/05/23 05:55:33;;;;;;;14.45;5.95;;;11.20;99.90;;;;;;5034301;28;20045;-79
2023/05/23 05:57:59;;;;;;;14.52;5.82;;;11.20;99.90;;;;;;5033944;28;20175;-79
2023/05/23 06:00:24;;;;;;;14.45;5.53;;;11.20;99.90;;;;;;5033366;28;20033;-80
2023/05/23 06:02:50;;;;;;;14.25;5.15;;;11.20;99.90;;;;;;5033716;28;20049;-79
2023/05/23 06:05:16;;;;;;;12.27;5.20;;;11.20;99.90;;;;;;5033904;28;20045;-79
2023/05/23 06:07:42;;;;;;;13.55;5.07;;;11.20;99.90;;;;;;5034749;28;20052;-79
2023/05/23 06:10:11;;;;;;;14.70;4.03;;;11.20;99.90;;;;;;5016094;28;20041;-80
2023/05/23 06:12:37;;;;;;;9.77;3.80;;;11.20;99.90;;;;;;5034524;28;20064;-80
2023/05/23 06:15:02;;;;;;;13.05;4.75;;;11.20;99.90;;;;;;5034239;28;20045;-82
2023/05/23 06:17:28;;;;;;;14.02;4.63;;;11.20;99.90;;;;;;5017220;28;20052;-79
2023/05/23 06:19:53;;;;;;;16.05;4.03;;;11.10;99.90;;;;;;5034496;28;20078;-81
2023/05/23 06:22:19;;;;;;;12.35;4.03;;;11.10;99.90;;;;;;5034937;28;20048;-79
2023/05/23 06:24:45;;;;;;;14.07;4.32;;;11.10;99.90;;;;;;5034083;28;20045;-80
2023/05/23 06:27:11;;;;;;;15.82;4.10;;;11.20;99.90;;;;;;5033604;28;20041;-80
2023/05/23 06:29:37;;;;;;;13.20;3.78;;;11.20;99.90;;;;;;5031140;28;20108;-78
2023/05/23 06:32:03;;;;;;;11.98;3.28;;;11.10;99.90;;;;;;5032523;28;20041;-81
2023/05/23 06:34:28;;;;;;;14.25;5.50;;;11.20;99.90;;;;;;5030528;28;20068;-79
2023/05/23 06:36:54;;;;;;;11.95;4.13;;;11.30;99.90;;;;;;5031023;28;20057;-78
2023/05/23 06:39:20;;;;;;;12.68;3.30;;;11.40;99.90;;;;;;5031678;28;20041;-81
2023/05/23 06:41:46;;;;;;;13.73;4.03;;;11.50;99.90;;;;;;5032906;28;20033;-79
2023/05/23 06:44:12;;;;;;;15.82;3.90;;;11.50;99.90;;;;;;5033750;28;20562;-83
2023/05/23 06:46:38;;;;;;;18.10;4.28;;;11.60;99.90;;;;;;5033284;28;20026;-79
2023/05/23 06:49:03;;;;;;;17.25;3.85;;;11.60;99.90;;;;;;5025038;28;20303;-78
2023/05/23 06:51:30;;;;;;;16.45;3.40;;;11.70;99.90;;;;;;5024175;28;20041;-78
2023/05/23 06:53:56;;;;;;;13.18;4.28;;;11.70;99.90;;;;;;5023655;28;20172;-80
2023/05/23 06:56:22;;;;;;;18.17;4.57;;;11.90;99.90;;;;;;5006178;28;20116;-82
2023/05/23 06:58:48;;;;;;;13.95;3.60;;;11.90;99.90;;;;;;5026091;28;20044;-82
2023/05/23 07:01:13;;;;;;;20.17;3.90;;;11.90;99.90;;;;;;5027207;28;20025;-80
2023/05/23 07:03:40;;;;;;;15.23;4.57;;;11.90;99.90;;;;;;5031339;28;20091;-80
2023/05/23 07:06:06;;;;;;;14.75;4.10;;;11.80;99.90;;;;;;5018323;28;20077;-78
2023/05/23 07:08:32;;;;;;;15.90;3.72;;;11.70;99.90;;;;;;5024981;28;20060;-79
2023/05/23 07:10:58;;;;;;;17.02;3.70;;;11.80;99.90;;;;;;5028900;28;20046;-82
2023/05/23 07:13:23;;;;;;;15.35;3.72;;;11.80;99.90;;;;;;5015016;28;20116;-78
2023/05/23 07:15:49;;;;;;;14.50;3.50;;;11.70;99.90;;;;;;5026751;28;20041;-78
2023/05/23 07:18:14;;;;;;;18.25;3.90;;;11.70;99.90;;;;;;5026217;28;20048;-82
2023/05/23 07:20:40;;;;;;;17.83;3.90;;;11.60;99.90;;;;;;5011339;28;20042;-78
2023/05/23 07:23:05;;;;;;;15.60;3.20;;;11.60;99.90;;;;;;5016147;28;20095;-79
2023/05/23 07:25:31;;;;;;;19.95;4.13;;;11.60;99.90;;;;;;5023155;28;20041;-80
2023/05/23 07:27:56;;;;;;;19.10;4.28;;;11.70;99.90;;;;;;5027936;28;20045;-81
2023/05/23 07:30:22;;;;;;;19.52;3.53;;;11.60;99.90;;;;;;5020959;28;20045;-80
2023/05/23 07:32:48;;;;;;;14.57;3.65;;;11.70;99.90;;;;;;5009704;28;20451;-80
2023/05/23 07:35:14;;;;;;;13.95;3.03;;;11.80;99.90;;;;;;5034423;28;20404;-80
2023/05/23 07:37:40;;;;;;;15.55;3.65;;;11.80;99.90;;;;;;5026732;28;20048;-80
2023/05/23 07:40:08;;;;;;;11.43;3.13;;;11.90;99.90;;;;;;5030550;28;20517;-79
2023/05/23 07:42:33;;;;;;;17.52;3.85;;;11.90;99.90;;;;;;5027390;28;20156;-79
2023/05/23 07:44:59;;;;;;;14.95;3.22;;;11.90;99.90;;;;;;5024431;28;20041;-79
2023/05/23 07:47:26;;;;;;;16.13;3.70;;;12.00;99.90;;;;;;5026870;28;20052;-81
2023/05/23 07:49:52;;;;;;;14.43;3.10;;;12.20;99.90;;;;;;5007617;28;20072;-80
2023/05/23 07:52:17;;;;;;;12.52;3.38;;;12.30;99.90;;;;;;5028644;28;20033;-82
2023/05/23 07:54:43;;;;;;;19.13;3.78;;;12.50;99.90;;;;;;5032544;28;20048;-78
2023/05/23 07:57:09;;;;;;;13.57;3.25;;;12.40;99.90;;;;;;5031066;28;20452;-79
2023/05/23 07:59:35;;;;;;;15.50;3.58;;;12.60;99.90;;;;;;5032594;28;20563;-79
2023/05/23 08:02:01;;;;;;;17.27;3.53;;;12.70;99.90;;;;;;5030918;28;20037;-80
2023/05/23 08:04:27;;;;;;;10.82;2.70;;;12.80;99.90;;;;;;5029595;28;20046;-80
2023/05/23 08:06:54;;;;;;;17.08;3.42;;;12.90;99.90;;;;;;5029624;28;20103;-80
2023/05/23 08:09:20;;;;;;;19.02;3.38;;;12.90;99.90;;;;;;5022450;28;20041;-80
2023/05/23 08:11:46;;;;;;;12.15;3.72;;;13.00;99.90;;;;;;5023158;28;20048;-80
2023/05/23 08:14:11;;;;;;;15.20;4.00;;;13.00;99.90;;;;;;5032015;28;20453;-80
2023/05/23 08:16:37;;;;;;;16.45;3.80;;;13.10;99.90;;;;;;5023629;28;20411;-80
2023/05/23 08:19:02;;;;;;;17.33;3.38;;;13.20;99.90;;;;;;5025657;28;20525;-80
2023/05/23 08:21:28;;;;;;;18.45;3.38;;;13.40;99.90;;;;;;5025737;28;20041;-80
2023/05/23 08:23:53;;;;;;;17.77;3.88;;;13.30;99.90;;;;;;5024843;28;20034;-82
2023/05/23 08:26:19;;;;;;;21.70;4.05;;;13.40;99.90;;;;;;5016377;28;20129;-82
2023/05/23 08:28:45;;;;;;;15.88;4.00;;;13.10;99.90;;;;;;5014914;28;20136;-79
2023/05/23 08:31:11;;;;;;;16.17;3.58;;;13.00;99.90;;;;;;5032888;28;20039;-81
2023/05/23 08:33:36;;;;;;;15.18;3.08;;;13.20;99.90;;;;;;5033707;28;20042;-80
2023/05/23 08:36:02;;;;;;;15.98;2.97;;;13.40;99.90;;;;;;5033594;28;20037;-80
2023/05/23 08:38:28;;;;;;;17.13;3.83;;;13.70;99.90;;;;;;5027338;28;20033;-81
2023/05/23 08:40:55;;;;;;;14.07;3.25;;;13.70;99.90;;;;;;5022183;28;20088;-82
2023/05/23 08:43:20;;;;;;;16.33;3.75;;;13.80;99.90;;;;;;5028562;28;20046;-79
2023/05/23 08:45:47;;;;;;;14.15;3.55;;;13.80;99.90;;;;;;5032100;28;20432;-80
2023/05/23 08:48:14;;;;;;;14.15;3.13;;;14.10;99.90;;;;;;5035021;28;20088;-80
2023/05/23 08:50:43;;;;;;;13.55;3.50;;;14.00;99.90;;;;;;5030222;28;20049;-81
2023/05/23 08:53:09;;;;;;;16.48;3.80;;;13.70;99.90;;;;;;5039895;28;20461;-81
2023/05/23 08:55:36;;;;;;;13.77;3.50;;;13.70;99.90;;;;;;5039380;28;20037;-79
2023/05/23 08:58:02;;;;;;;13.65;3.35;;;13.50;99.90;;;;;;5037343;28;20033;-82
2023/05/23 09:00:28;;;;;;;10.75;3.13;;;13.50;99.90;;;;;;5038003;28;20033;-83
2023/05/23 09:02:54;;;;;;;14.07;3.47;;;13.50;99.90;;;;;;5038191;28;20029;-81
2023/05/23 09:05:21;;;;;;;10.75;3.10;;;13.70;99.90;;;;;;5038452;28;20041;-82
2023/05/23 09:07:48;;;;;;;13.13;3.33;;;14.10;99.90;;;;;;5038397;28;20064;-80
2023/05/23 09:10:16;;;;;;;12.38;4.05;;;14.30;99.90;;;;;;5036240;28;20042;-81
2023/05/23 09:12:42;;;;;;;16.38;3.58;;;14.70;99.90;;;;;;5038709;28;20064;-80
2023/05/23 09:15:09;;;;;;;19.85;3.22;;;14.70;99.90;;;;;;5037677;28;20375;-84
2023/05/23 09:17:36;;;;;;;15.38;3.40;;;14.20;99.90;;;;;;5038186;28;20500;-81
2023/05/23 09:20:09;;;;;;;15.65;4.13;;;13.80;99.90;;;;;;5038535;28;20045;-83
2023/05/23 09:22:34;;;;;;;15.32;2.95;;;13.60;99.90;;;;;;5019372;28;20041;-82
2023/05/23 09:25:00;;;;;;;13.23;3.03;;;13.90;99.90;;;;;;5013057;28;20045;-84
2023/05/23 09:27:26;;;;;;;18.52;3.55;;;13.90;99.90;;;;;;5037156;28;20132;-80
2023/05/23 09:29:52;;;;;;;11.43;3.20;;;14.00;99.90;;;;;;5037077;28;20128;-79
2023/05/23 09:32:18;;;;;;;14.00;3.28;;;13.80;99.90;;;;;;5038521;28;20089;-81
2023/05/23 09:34:57;;;;;;;18.08;3.45;;;13.90;99.90;;;;;;5037514;28;20057;-80
2023/05/23 09:37:30;;;;;;;16.42;3.38;;;13.90;99.90;;;;;;5036568;28;20442;-80
2023/05/23 09:39:56;;;;;;;15.30;2.90;;;14.10;99.90;;;;;;5038218;28;20448;-82
2023/05/23 09:42:22;;;;;;;18.77;3.70;;;13.80;99.90;;;;;;5039216;28;20403;-80
2023/05/23 09:44:49;;;;;;;15.25;3.30;;;13.80;99.90;;;;;;5038947;28;20077;-81
2023/05/23 09:47:17;;;;;;;19.38;4.43;;;13.90;99.90;;;;;;5037884;28;20041;-82
2023/05/23 09:49:44;;;;;;;12.13;3.38;;;14.10;99.90;;;;;;5021111;28;20052;-82
2023/05/23 09:52:11;;;;;;;13.95;3.55;;;13.90;99.90;;;;;;5025682;28;20052;-81
2023/05/23 09:54:36;;;;;;;14.23;3.15;;;14.10;99.90;;;;;;5043968;28;20045;-83
2023/05/23 09:57:04;;;;;;;14.00;3.55;;;14.50;99.90;;;;;;5046673;28;20165;-81
2023/05/23 09:59:33;;;;;;;16.88;3.35;;;14.60;99.90;;;;;;5046280;28;20097;-81
2023/05/23 10:02:01;;;;;;;10.32;3.20;;;14.50;99.90;;;;;;5028280;28;20042;-80
2023/05/23 10:04:30;;;;;;;18.50;3.35;;;14.50;99.90;;;;;;5044236;28;20061;-81
2023/05/23 10:07:06;;;;;;;12.00;2.50;;;14.70;99.90;;;;;;5022331;28;20069;-81
2023/05/23 10:09:34;;;;;;;9.75;2.63;;;14.70;99.90;;;;;;5043597;28;20041;-83
2023/05/23 10:12:21;;;;;;;10.45;2.80;;;14.60;99.90;;;;;;5043604;28;20060;-84
2023/05/23 10:14:53;;;;;;;13.38;2.70;;;14.40;99.90;;;;;;5026257;28;20051;-81
2023/05/23 10:17:45;;;;;;;9.17;2.60;;;14.40;99.90;;;;;;5043184;28;20104;-85
2023/05/23 10:20:14;;;;;;;12.15;3.47;;;14.50;99.90;;;;;;5043335;28;20112;-84
2023/05/23 10:22:41;;;;;;;16.20;2.80;;;14.60;99.90;;;;;;5021821;28;20061;-81
2023/05/23 10:25:09;;;;;;;10.95;2.70;;;14.50;99.90;;;;;;5017457;28;20088;-80
2023/05/23 10:27:36;;;;;;;10.93;2.58;;;14.70;99.90;;;;;;5036539;28;20033;-79
2023/05/23 10:30:02;;;;;;;12.73;3.63;;;14.50;99.90;;;;;;5038211;28;20037;-79
2023/05/23 10:32:28;;;;;;;11.63;2.72;;;14.40;99.90;;;;;;5036944;28;20103;-79
2023/05/23 10:35:17;;;;;;;12.68;3.05;;;14.50;99.90;;;;;;5039005;28;20042;-79
2023/05/23 10:38:06;;;;;;;18.58;3.38;;;14.50;99.90;;;;;;5040528;28;20045;-83
2023/05/23 10:41:00;;;;;;;14.80;3.63;;;14.30;99.90;;;;;;5039450;28;20037;-80
2023/05/23 10:43:54;;;;;;;15.70;2.83;;;14.30;99.90;;;;;;5019377;28;20042;-82
2023/05/23 10:46:21;;;;;;;17.65;3.53;;;14.40;99.90;;;;;;5032559;28;20041;-77
2023/05/23 10:48:46;;;;;;;15.07;3.97;;;14.20;99.90;;;;;;5039841;28;20041;-81
2023/05/23 10:51:14;;;;;;;13.43;2.97;;;14.50;99.90;;;;;;5039651;28;20048;-80
2023/05/23 10:53:44;;;;;;;9.95;2.78;;;15.00;99.90;;;;;;5017764;28;20073;-78
2023/05/23 10:56:22;;;;;;;14.10;2.90;;;14.80;99.90;;;;;;5035205;28;20044;-81
2023/05/23 10:58:52;;;;;;;13.93;3.25;;;14.50;99.90;;;;;;5020804;28;20053;-83
2023/05/23 11:01:21;;;;;;;13.27;3.50;;;14.30;99.90;;;;;;5027233;28;20033;-83
2023/05/23 11:03:46;;;;;;;14.35;3.38;;;14.20;99.90;;;;;;5016240;28;20038;-79
2023/05/23 11:06:48;;;;;;;11.98;3.03;;;14.30;99.90;;;;;;5022426;28;20049;-83
2023/05/23 11:09:17;;;;;;;13.80;3.35;;;14.70;99.90;;;;;;5032955;28;20047;-80
2023/05/23 11:12:12;;;;;;;12.52;2.92;;;14.90;99.90;;;;;;5032799;28;20052;-80
2023/05/23 11:14:38;;;;;;;14.43;3.10;;;15.20;99.90;;;;;;5012414;28;20099;-79
2023/05/23 11:17:16;;;;;;;11.73;2.60;;;15.40;99.90;;;;;;5027138;28;20033;-79
2023/05/23 11:20:07;;;;;;;15.20;3.10;;;15.70;99.90;;;;;;5025563;28;20548;-79
2023/05/23 11:22:34;;;;;;;12.25;3.15;;;15.30;99.90;;;;;;5029542;28;20033;-80
2023/05/23 11:25:05;;;;;;;13.35;3.20;;;15.10;99.90;;;;;;5029178;28;20400;-80
2023/05/23 11:27:34;;;;;;;14.65;2.88;;;14.80;99.90;;;;;;5027736;28;20456;-80
2023/05/23 11:30:12;;;;;;;14.07;3.45;;;14.90;99.90;;;;;;5031552;28;20041;-80
2023/05/23 11:32:38;;;;;;;10.05;2.88;;;15.00;99.90;;;;;;5029369;28;20132;-82
2023/05/23 11:35:09;;;;;;;11.73;2.85;;;15.00;99.90;;;;;;5033345;28;20037;-81
2023/05/23 11:37:36;;;;;;;10.10;2.53;;;14.60;99.90;;;;;;5032529;28;20121;-80
2023/05/23 11:40:25;;;;;;;9.73;2.92;;;14.60;99.90;;;;;;5031947;28;20045;-80
2023/05/23 11:42:51;;;;;;;12.70;2.78;;;14.80;99.90;;;;;;5026509;28;20034;-80
2023/05/23 11:45:20;;;;;;;16.30;3.33;;;15.10;99.90;;;;;;5033296;28;20033;-82
2023/05/23 11:47:46;;;;;;;9.35;2.63;;;15.40;99.90;;;;;;5033552;28;20037;-81
2023/05/23 11:50:12;;;;;;;12.80;2.65;;;15.50;99.90;;;;;;5033569;28;20528;-81
2023/05/23 11:52:37;;;;;;;11.35;2.50;;;15.20;99.90;;;;;;5032023;28;20037;-80
2023/05/23 11:55:03;;;;;;;10.73;3.05;;;15.50;99.90;;;;;;5032359;28;20048;-81
2023/05/23 11:57:29;;;;;;;17.63;2.75;;;15.00;99.90;;;;;;5028788;28;20041;-80
2023/05/23 11:59:55;;;;;;;10.27;2.55;;;15.10;99.90;;;;;;5025356;28;20366;-81
2023/05/23 12:02:21;;;;;;;12.50;2.63;;;15.40;99.90;;;;;;5030582;28;20034;-80
2023/05/23 12:04:48;;;;;;;14.50;2.83;;;15.30;99.90;;;;;;5029358;28;20037;-83
2023/05/23 12:07:13;;;;;;;11.73;2.63;;;15.20;99.90;;;;;;5033901;28;20057;-82
2023/05/23 12:09:45;;;;;;;18.08;3.38;;;15.40;99.90;;;;;;5035253;28;20033;-79
2023/05/23 12:12:12;;;;;;;13.88;3.17;;;15.40;99.90;;;;;;5015401;28;20094;-80
2023/05/23 12:14:43;;;;;;;9.65;2.72;;;15.50;99.90;;;;;;5034335;28;20120;-83
2023/05/23 12:17:12;;;;;;;14.45;3.05;;;15.40;99.90;;;;;;5037020;28;20493;-83
2023/05/23 12:19:38;;;;;;;11.70;3.20;;;15.50;99.90;;;;;;5020603;28;20092;-80
2023/05/23 12:22:07;;;;;;;16.15;3.03;;;15.30;99.90;;;;;;5037342;28;20436;-85
2023/05/23 12:24:33;;;;;;;13.95;2.90;;;14.90;99.90;;;;;;5033628;28;20468;-82
2023/05/23 12:27:01;;;;;;;14.73;2.72;;;14.60;99.90;;;;;;5034939;28;20038;-80
2023/05/23 12:29:31;;;;;;;12.73;3.42;;;14.90;99.90;;;;;;5034484;28;20059;-81
2023/05/23 12:31:58;;;;;;;12.93;3.17;;;15.20;99.90;;;;;;5036379;28;20069;-79
2023/05/23 12:34:24;;;;;;;10.63;2.47;;;15.00;99.90;;;;;;5036004;28;20548;-81
2023/05/23 12:36:54;;;;;;;11.68;2.63;;;14.90;99.90;;;;;;5033404;28;20101;-83